Helena Kosan — MQWF3 — position and weather

sailwx.info

Track history (hours):
 
Tides and Currents Weather Stations Pressure Air Temp Water Temp Dewpoint Dewpoint Depression Visibility Wind Speed Wind Dir Waves Ship Positions

Helena Kosan

Last reported at 2018-Jan-04 09:56 UTC. Time now 2018-Jul-22 14:33 UTC.
Position N 49°52' W 003°22'.
Warning: this ship's position is months out of date.

Length 115 m; draft 6.3 m.

Type: Ship (hazmat cat D). MMSI: 235053771.

Date/timePositionNaut miles runAvg speedWind from/ knotsBaromVisibWave heightAir tempDewpointWater temp
2018-Jan-04 09:56N 49°52' W 003°22'3 3.9
2018-Jan-04 09:13N 49°54' W 003°18'1 3.6
2018-Jan-04 08:56N 49°54' W 003°17'12 2.9
2018-Jan-04 04:50N 49°59' W 002°60'410.8
2018-Jan-04 04:28N 49°60' W 002°54'107 9.3
2018-Jan-03 16:56N 50°29' W 000°12'4 8.5
2018-Jan-03 16:30N 50°30' W 000°07'4 8.0
2018-Jan-03 16:00N 50°31' W 000°01'4 7.8
2018-Jan-03 15:30N 50°32' E 000°05'4 7.3
2018-Jan-03 15:00N 50°33' E 000°11'11 5.5
2018-Jan-03 13:06N 50°36' E 000°26'2 4.4
2018-Jan-03 12:44N 50°36' E 000°29'1 4.1
2018-Jan-03 12:30N 50°37' E 000°30'2 3.4
2018-Jan-03 11:58N 50°37' E 000°33'2 3.2
2018-Jan-03 11:30N 50°38' E 000°35'2 2.7
2018-Jan-03 10:47N 50°39' E 000°38'1 3.1
2018-Jan-03 10:30N 50°39' E 000°39'1 2.1
2018-Jan-03 09:57N 50°40' E 000°40'1 2.7
2018-Jan-03 09:30N 50°41' E 000°42'2 3.1
2018-Jan-03 09:00N 50°42' E 000°44'2 4.9
2018-Jan-03 08:30N 50°43' E 000°47'3 5.8
2018-Jan-03 07:58N 50°45' E 000°50'26 8.7
2018-Jan-03 05:02N 51°01' E 001°22'1 8.8
2018-Jan-03 04:56N 51°02' E 001°23'3 7.8
2018-Jan-03 04:30N 51°04' E 001°27'4 7.8
2018-Jan-03 04:01N 51°06' E 001°32'4 7.2
2018-Jan-03 03:30N 51°09' E 001°36'3 6.9
2018-Jan-03 03:00N 51°11' E 001°41'3 6.6
2018-Jan-03 02:30N 51°13' E 001°45'3 6.3
2018-Jan-03 02:00N 51°15' E 001°48'3 5.0
2018-Jan-03 01:30N 51°18' E 001°50'2 4.8
2018-Jan-03 01:00N 51°20' E 001°52'3 5.8
2018-Jan-03 00:30N 51°22' E 001°54'3 6.1
2018-Jan-03 00:00N 51°25' E 001°56'4 8.1
2018-Jan-02 23:28N 51°29' E 001°60'5 9.6
2018-Jan-02 22:58N 51°32' E 002°05'6912.7
2018-Jan-02 17:33N 52°26' E 003°15'110.7
2018-Jan-02 17:29N 52°26' E 003°16'510.6
2018-Jan-02 16:59N 52°30' E 003°21'510.4
2018-Jan-02 16:30N 52°34' E 003°26'18711.7
2018-Jan-02 00:26N 54°01' E 008°04'612.1
2018-Jan-01 23:56N 54°00' E 008°15'614.8
2018-Jan-01 23:30N 53°59' E 008°25'714.5
2018-Jan-01 23:00N 53°57' E 008°37'713.1
2018-Jan-01 22:30N 53°52' E 008°44'612.1
2018-Jan-01 22:00N 53°51' E 008°53'612.5
2018-Jan-01 21:30N 53°52' E 009°04'510.1
2018-Jan-01 21:00N 53°53' E 009°12'713.2
2018-Jan-01 20:30N 53°50' E 009°22'816.4
2018-Jan-01 20:00N 53°43' E 009°29'4 5.8
2018-Jan-01 19:23N 53°39' E 009°31'0 0.0
2018-Jan-01 18:56N 53°39' E 009°31'0 0.0
2018-Jan-01 18:23N 53°39' E 009°31'0 0.0
2018-Jan-01 17:59N 53°39' E 009°31'0 0.0
2018-Jan-01 17:26N 53°39' E 009°31'0 0.0
2018-Jan-01 14:47N 53°39' E 009°31'0 0.0
2018-Jan-01 14:29N 53°39' E 009°31'0 0.0
2018-Jan-01 13:56N 53°39' E 009°31'0 0.0
2018-Jan-01 13:29N 53°39' E 009°31'0 0.0
2018-Jan-01 12:56N 53°39' E 009°31'0 0.0
2018-Jan-01 11:59N 53°39' E 009°31'0 0.0
2018-Jan-01 11:26N 53°39' E 009°31'0 0.0
2018-Jan-01 10:59N 53°39' E 009°31'0 0.0
2018-Jan-01 10:26N 53°39' E 009°31'0 0.0
2018-Jan-01 09:59N 53°39' E 009°31'0 0.0
2018-Jan-01 09:29N 53°39' E 009°31'0 0.0
2018-Jan-01 08:29N 53°39' E 009°31'0 0.0
2018-Jan-01 07:50N 53°39' E 009°31'0 0.0
2018-Jan-01 07:23N 53°39' E 009°31'0 0.0
2018-Jan-01 06:56N 53°39' E 009°31'0 0.0
2018-Jan-01 05:59N 53°39' E 009°31'0 0.0
2018-Jan-01 05:26N 53°39' E 009°31'0 0.0
2018-Jan-01 04:53N 53°39' E 009°31'0 0.0
2018-Jan-01 03:59N 53°39' E 009°31'0 0.0
2018-Jan-01 03:29N 53°39' E 009°31'0 0.0
2018-Jan-01 02:56N 53°39' E 009°31'0 0.0
2018-Jan-01 02:29N 53°39' E 009°31'0 0.0
2018-Jan-01 01:56N 53°39' E 009°31'0 0.0
2018-Jan-01 01:29N 53°39' E 009°31'0 0.0
2018-Jan-01 00:26N 53°39' E 009°31'0 0.1
2017-Dec-31 21:00N 53°39' E 009°31'5 9.6
2017-Dec-31 20:30N 53°44' E 009°27'816.1
2017-Dec-31 20:00N 53°50' E 009°20'815.3
2017-Dec-31 19:30N 53°53' E 009°08'713.1
2017-Dec-31 19:00N 53°51' E 008°57'714.5
2017-Dec-31 18:30N 53°51' E 008°45'714.8
2017-Dec-31 18:00N 53°57' E 008°37'815.9
2017-Dec-31 17:31N 53°59' E 008°24'713.9
2017-Dec-31 17:00N 53°60' E 008°12'815.7
2017-Dec-31 16:30N 53°58' E 007°59'10416.1
2017-Dec-31 10:04N 53°31' E 005°10'116.3
2017-Dec-31 09:59N 53°30' E 005°08'5315.5
2017-Dec-31 06:36N 52°49' E 004°13'215.8
2017-Dec-31 06:29N 52°48' E 004°12'9717.1
2017-Dec-31 00:50N 51°37' E 002°25'618.1
2017-Dec-31 00:30N 51°32' E 002°19'918.3
2017-Dec-30 23:59N 51°24' E 002°12'918.2
2017-Dec-30 23:30N 51°16' E 002°06'918.7
2017-Dec-30 23:00N 51°10' E 001°54'1019.0
2017-Dec-30 22:31N 51°04' E 001°43'  
2017-Dec-28 09:47N 39°10' W 009°57'414.5
2017-Dec-28 09:31N 39°06' W 009°57'714.7
2017-Dec-28 09:00N 38°59' W 009°57'714.4
2017-Dec-28 08:30N 38°51' W 009°57'714.8
2017-Dec-28 08:00N 38°44' W 009°57'714.1
2017-Dec-28 07:30N 38°37' W 009°55'713.8
2017-Dec-28 06:59N 38°30' W 009°53'  
Track history (hours):
 
Tides and Currents Weather Stations Pressure Air Temp Water Temp Dewpoint Dewpoint Depression Visibility Wind Speed Wind Dir Waves Ship Positions

Helena Kosan

Last reported at 2018-Jan-04 09:56 UTC. Time now 2018-Jul-22 14:33 UTC.
Position N 49°52' W 003°22'.
Warning: this ship's position is months out of date.

Length 115 m; draft 6.3 m.

Type: Ship (hazmat cat D). MMSI: 235053771.

Date/timePositionNaut miles runAvg speedWind from/ knotsBaromVisibWave heightAir tempDewpointWater temp
2018-Jan-04 09:56N 49°52' W 003°22'3 3.9
2018-Jan-04 09:13N 49°54' W 003°18'1 3.6
2018-Jan-04 08:56N 49°54' W 003°17'12 2.9
2018-Jan-04 04:50N 49°59' W 002°60'410.8
2018-Jan-04 04:28N 49°60' W 002°54'107 9.3
2018-Jan-03 16:56N 50°29' W 000°12'4 8.5
2018-Jan-03 16:30N 50°30' W 000°07'4 8.0
2018-Jan-03 16:00N 50°31' W 000°01'4 7.8
2018-Jan-03 15:30N 50°32' E 000°05'4 7.3
2018-Jan-03 15:00N 50°33' E 000°11'11 5.5
2018-Jan-03 13:06N 50°36' E 000°26'2 4.4
2018-Jan-03 12:44N 50°36' E 000°29'1 4.1
2018-Jan-03 12:30N 50°37' E 000°30'2 3.4
2018-Jan-03 11:58N 50°37' E 000°33'2 3.2
2018-Jan-03 11:30N 50°38' E 000°35'2 2.7
2018-Jan-03 10:47N 50°39' E 000°38'1 3.1
2018-Jan-03 10:30N 50°39' E 000°39'1 2.1
2018-Jan-03 09:57N 50°40' E 000°40'1 2.7
2018-Jan-03 09:30N 50°41' E 000°42'2 3.1
2018-Jan-03 09:00N 50°42' E 000°44'2 4.9
2018-Jan-03 08:30N 50°43' E 000°47'3 5.8
2018-Jan-03 07:58N 50°45' E 000°50'26 8.7
2018-Jan-03 05:02N 51°01' E 001°22'1 8.8
2018-Jan-03 04:56N 51°02' E 001°23'3 7.8
2018-Jan-03 04:30N 51°04' E 001°27'4 7.8
2018-Jan-03 04:01N 51°06' E 001°32'4 7.2
2018-Jan-03 03:30N 51°09' E 001°36'3 6.9
2018-Jan-03 03:00N 51°11' E 001°41'3 6.6
2018-Jan-03 02:30N 51°13' E 001°45'3 6.3
2018-Jan-03 02:00N 51°15' E 001°48'3 5.0
2018-Jan-03 01:30N 51°18' E 001°50'2 4.8
2018-Jan-03 01:00N 51°20' E 001°52'3 5.8
2018-Jan-03 00:30N 51°22' E 001°54'3 6.1
2018-Jan-03 00:00N 51°25' E 001°56'4 8.1
2018-Jan-02 23:28N 51°29' E 001°60'5 9.6
2018-Jan-02 22:58N 51°32' E 002°05'6912.7
2018-Jan-02 17:33N 52°26' E 003°15'110.7
2018-Jan-02 17:29N 52°26' E 003°16'510.6
2018-Jan-02 16:59N 52°30' E 003°21'510.4
2018-Jan-02 16:30N 52°34' E 003°26'18711.7
2018-Jan-02 00:26N 54°01' E 008°04'612.1
2018-Jan-01 23:56N 54°00' E 008°15'614.8
2018-Jan-01 23:30N 53°59' E 008°25'714.5
2018-Jan-01 23:00N 53°57' E 008°37'713.1
2018-Jan-01 22:30N 53°52' E 008°44'612.1
2018-Jan-01 22:00N 53°51' E 008°53'612.5
2018-Jan-01 21:30N 53°52' E 009°04'510.1
2018-Jan-01 21:00N 53°53' E 009°12'713.2
2018-Jan-01 20:30N 53°50' E 009°22'816.4
2018-Jan-01 20:00N 53°43' E 009°29'4 5.8
2018-Jan-01 19:23N 53°39' E 009°31'0 0.0
2018-Jan-01 18:56N 53°39' E 009°31'0 0.0
2018-Jan-01 18:23N 53°39' E 009°31'0 0.0
2018-Jan-01 17:59N 53°39' E 009°31'0 0.0
2018-Jan-01 17:26N 53°39' E 009°31'0 0.0
2018-Jan-01 14:47N 53°39' E 009°31'0 0.0
2018-Jan-01 14:29N 53°39' E 009°31'0 0.0
2018-Jan-01 13:56N 53°39' E 009°31'0 0.0
2018-Jan-01 13:29N 53°39' E 009°31'0 0.0
2018-Jan-01 12:56N 53°39' E 009°31'0 0.0
2018-Jan-01 11:59N 53°39' E 009°31'0 0.0
2018-Jan-01 11:26N 53°39' E 009°31'0 0.0
2018-Jan-01 10:59N 53°39' E 009°31'0 0.0
2018-Jan-01 10:26N 53°39' E 009°31'0 0.0
2018-Jan-01 09:59N 53°39' E 009°31'0 0.0
2018-Jan-01 09:29N 53°39' E 009°31'0 0.0
2018-Jan-01 08:29N 53°39' E 009°31'0 0.0
2018-Jan-01 07:50N 53°39' E 009°31'0 0.0
2018-Jan-01 07:23N 53°39' E 009°31'0 0.0
2018-Jan-01 06:56N 53°39' E 009°31'0 0.0
2018-Jan-01 05:59N 53°39' E 009°31'0 0.0
2018-Jan-01 05:26N 53°39' E 009°31'0 0.0
2018-Jan-01 04:53N 53°39' E 009°31'0 0.0
2018-Jan-01 03:59N 53°39' E 009°31'0 0.0
2018-Jan-01 03:29N 53°39' E 009°31'0 0.0
2018-Jan-01 02:56N 53°39' E 009°31'0 0.0
2018-Jan-01 02:29N 53°39' E 009°31'0 0.0
2018-Jan-01 01:56N 53°39' E 009°31'0 0.0
2018-Jan-01 01:29N 53°39' E 009°31'0 0.0
2018-Jan-01 00:26N 53°39' E 009°31'0 0.1
2017-Dec-31 21:00N 53°39' E 009°31'5 9.6
2017-Dec-31 20:30N 53°44' E 009°27'816.1
2017-Dec-31 20:00N 53°50' E 009°20'815.3
2017-Dec-31 19:30N 53°53' E 009°08'713.1
2017-Dec-31 19:00N 53°51' E 008°57'714.5
2017-Dec-31 18:30N 53°51' E 008°45'714.8
2017-Dec-31 18:00N 53°57' E 008°37'815.9
2017-Dec-31 17:31N 53°59' E 008°24'713.9
2017-Dec-31 17:00N 53°60' E 008°12'815.7
2017-Dec-31 16:30N 53°58' E 007°59'10416.1
2017-Dec-31 10:04N 53°31' E 005°10'116.3
2017-Dec-31 09:59N 53°30' E 005°08'5315.5
2017-Dec-31 06:36N 52°49' E 004°13'215.8
2017-Dec-31 06:29N 52°48' E 004°12'9717.1
2017-Dec-31 00:50N 51°37' E 002°25'618.1
2017-Dec-31 00:30N 51°32' E 002°19'918.3
2017-Dec-30 23:59N 51°24' E 002°12'918.2
2017-Dec-30 23:30N 51°16' E 002°06'918.7
2017-Dec-30 23:00N 51°10' E 001°54'1019.0
2017-Dec-30 22:31N 51°04' E 001°43'  
2017-Dec-28 09:47N 39°10' W 009°57'414.5
2017-Dec-28 09:31N 39°06' W 009°57'714.7
2017-Dec-28 09:00N 38°59' W 009°57'714.4
2017-Dec-28 08:30N 38°51' W 009°57'714.8
2017-Dec-28 08:00N 38°44' W 009°57'714.1
2017-Dec-28 07:30N 38°37' W 009°55'713.8
2017-Dec-28 06:59N 38°30' W 009°53'  

Dump ship's entire track history